Time;durP1;ratioP1;P1;durP2;ratioP2;P2;SDS_P1;SDS_P2;PMS_P1;PMS_P2;Temp;Humidity;BMP_temperature;BMP_pressure;BME280_temperature;BME280_humidity;BME280_pressure;Samples;Min_cycle;Max_cycle;Signal;HPM_P1;HPM_P2
2022/09/07 00:01:25;;;;;;;20.65;12.45;;;;;;;;;;4998566;28;20046;-77
2022/09/07 00:03:55;;;;;;;14.77;11.40;;;;;;;;;;5016914;28;20065;-79
2022/09/07 00:06:22;;;;;;;14.63;11.23;;;;;;;;;;5018994;28;20054;-80
2022/09/07 00:08:49;;;;;;;17.05;12.38;;;;;;;;;;5018978;28;20092;-80
2022/09/07 00:11:16;;;;;;;16.50;12.07;;;;;;;;;;5018583;28;20130;-80
2022/09/07 00:13:43;;;;;;;14.48;11.43;;;;;;;;;;5018771;28;20136;-80
2022/09/07 00:16:12;;;;;;;15.18;10.93;;;;;;;;;;5017761;28;20053;-80
2022/09/07 00:18:38;;;;;;;16.27;11.75;;;;;;;;;;5015866;28;20481;-80
2022/09/07 00:21:11;;;;;;;15.82;11.20;;;;;;;;;;5017345;28;20057;-81
2022/09/07 00:23:38;;;;;;;17.50;12.55;;;;;;;;;;4999399;28;20494;-79
2022/09/07 00:26:06;;;;;;;16.35;11.27;;;;;;;;;;5012985;28;20077;-81
2022/09/07 00:28:33;;;;;;;16.08;12.38;;;;;;;;;;5014717;28;20069;-80
2022/09/07 00:30:59;;;;;;;17.30;13.48;;;;;;;;;;4998831;28;20053;-80
2022/09/07 00:33:26;;;;;;;19.20;12.20;;;;;;;;;;5015853;28;20053;-80
2022/09/07 00:35:53;;;;;;;16.08;12.77;;;;;;;;;;5016710;28;20050;-80
2022/09/07 00:38:19;;;;;;;19.73;13.18;;;;;;;;;;5016540;28;20084;-78
2022/09/07 00:40:45;;;;;;;19.30;13.00;;;;;;;;;;5010426;28;20050;-80
2022/09/07 00:43:14;;;;;;;18.40;13.80;;;;;;;;;;5008296;28;20056;-79
2022/09/07 00:45:40;;;;;;;20.60;13.50;;;;;;;;;;5009608;28;20088;-80
2022/09/07 00:48:09;;;;;;;20.25;14.93;;;;;;;;;;5013361;28;20096;-78
2022/09/07 00:50:36;;;;;;;21.80;14.50;;;;;;;;;;5011541;28;20109;-79
2022/09/07 00:53:11;;;;;;;20.55;14.77;;;;;;;;;;5009483;28;20125;-79
2022/09/07 00:55:38;;;;;;;;;;;;;;;;;;5011904;28;20128;-80
2022/09/07 00:58:04;;;;;;;;;;;;;;;;;;5011508;28;20350;-78
2022/09/07 01:00:30;;;;;;;22.30;13.88;;;;;;;;;;5010570;28;20020;-79
2022/09/07 01:02:57;;;;;;;16.42;12.90;;;;;;;;;;5009630;28;20124;-80
2022/09/07 01:05:24;;;;;;;19.45;13.63;;;;;;;;;;5012101;28;20049;-80
2022/09/07 01:07:55;;;;;;;17.23;13.70;;;;;;;;;;5012166;28;20129;-79
2022/09/07 01:10:23;;;;;;;17.95;13.05;;;;;;;;;;5011099;28;20140;-79
2022/09/07 01:12:50;;;;;;;19.02;13.88;;;;;;;;;;5011279;28;20089;-79
2022/09/07 01:15:17;;;;;;;17.05;12.32;;;;;;;;;;5011603;28;20141;-78
2022/09/07 01:18:02;;;;;;;16.83;12.45;;;;;;;;;;5013243;28;20106;-79
2022/09/07 01:20:34;;;;;;;18.98;12.70;;;;;;;;;;5012800;28;20041;-79
2022/09/07 01:23:01;;;;;;;15.02;12.15;;;;;;;;;;5012683;28;20077;-79
2022/09/07 01:25:33;;;;;;;18.27;11.82;;;;;;;;;;5013005;28;20070;-79
2022/09/07 01:28:26;;;;;;;17.73;12.27;;;;;;;;;;5012712;28;20045;-80
2022/09/07 01:30:57;;;;;;;19.70;12.88;;;;;;;;;;5011586;28;20109;-78
2022/09/07 01:33:41;;;;;;;18.85;12.57;;;;;;;;;;5013939;28;20046;-80
2022/09/07 01:36:14;;;;;;;21.17;13.18;;;;;;;;;;4995569;28;20421;-80
2022/09/07 01:38:43;;;;;;;17.42;12.98;;;;;;;;;;5013093;28;20689;-80
2022/09/07 01:41:16;;;;;;;18.90;13.10;;;;;;;;;;5012704;28;20049;-80
2022/09/07 01:44:04;;;;;;;18.48;13.43;;;;;;;;;;5028527;28;20208;-80
2022/09/07 01:46:33;;;;;;;17.20;12.93;;;;;;;;;;5000376;28;20050;-80
2022/09/07 01:49:18;;;;;;;16.30;12.80;;;;;;;;;;4995903;28;20049;-81
2022/09/07 01:51:47;;;;;;;16.53;12.40;;;;;;;;;;5014139;28;20434;-80
2022/09/07 01:54:24;;;;;;;16.60;13.15;;;;;;;;;;5017839;28;20046;-79
2022/09/07 01:56:52;;;;;;;18.95;13.52;;;;;;;;;;5018247;28;20438;-80
2022/09/07 01:59:23;;;;;;;16.77;12.27;;;;;;;;;;5016600;28;20454;-80
2022/09/07 02:01:52;;;;;;;20.35;13.57;;;;;;;;;;5018593;28;20099;-80
2022/09/07 02:04:26;;;;;;;19.27;13.77;;;;;;;;;;5020846;28;20041;-78
2022/09/07 02:06:59;;;;;;;16.30;12.95;;;;;;;;;;5031744;28;20037;-79
2022/09/07 02:09:25;;;;;;;18.20;12.88;;;;;;;;;;5031553;28;20049;-79
2022/09/07 02:11:53;;;;;;;15.60;11.73;;;;;;;;;;5018914;28;20552;-80
2022/09/07 02:14:28;;;;;;;15.98;11.80;;;;;;;;;;5016716;28;20046;-79
2022/09/07 02:16:58;;;;;;;15.35;11.38;;;;;;;;;;5017228;28;20084;-79
2022/09/07 02:19:26;;;;;;;13.90;11.15;;;;;;;;;;5016389;28;20080;-79
2022/09/07 02:21:57;;;;;;;14.98;11.27;;;;;;;;;;5016593;28;20128;-79
2022/09/07 02:24:31;;;;;;;16.02;11.52;;;;;;;;;;5017223;28;20042;-82
2022/09/07 02:26:58;;;;;;;14.60;11.35;;;;;;;;;;5017092;28;20073;-79
2022/09/07 02:29:24;;;;;;;15.88;12.30;;;;;;;;;;5015500;28;20076;-79
2022/09/07 02:31:56;;;;;;;15.02;11.15;;;;;;;;;;5016409;28;20050;-78
2022/09/07 02:34:22;;;;;;;17.38;11.30;;;;;;;;;;5017333;28;20181;-79
2022/09/07 02:36:50;;;;;;;15.38;11.35;;;;;;;;;;5016492;28;20151;-80
2022/09/07 02:39:16;;;;;;;15.75;12.38;;;;;;;;;;5014845;28;20074;-80
2022/09/07 02:41:43;;;;;;;18.75;13.25;;;;;;;;;;5016255;28;20046;-81
2022/09/07 02:44:18;;;;;;;15.20;11.68;;;;;;;;;;5015973;28;20061;-79
2022/09/07 02:46:44;;;;;;;18.05;12.07;;;;;;;;;;5017573;28;20068;-79
2022/09/07 02:49:11;;;;;;;18.33;12.20;;;;;;;;;;5017081;28;20096;-79
2022/09/07 02:51:49;;;;;;;15.90;12.10;;;;;;;;;;5018020;28;20049;-78
2022/09/07 02:54:36;;;;;;;21.80;12.35;;;;;;;;;;5017337;28;20129;-80
2022/09/07 02:57:11;;;;;;;21.90;14.68;;;;;;;;;;5016556;28;20076;-80
2022/09/07 02:59:38;;;;;;;;;;;;;;;;;;5016306;28;20073;-79
2022/09/07 03:02:23;;;;;;;26.30;14.80;;;;;;;;;;5017922;28;19944;-79
2022/09/07 03:05:09;;;;;;;24.27;16.63;;;;;;;;;;5016354;28;20061;-79
2022/09/07 03:07:38;;;;;;;23.52;16.67;;;;;;;;;;5017093;28;20727;-79
2022/09/07 03:10:11;;;;;;;21.05;14.98;;;;;;;;;;5014787;28;20447;-80
2022/09/07 03:12:43;;;;;;;21.83;16.13;;;;;;;;;;5014947;28;20089;-79
2022/09/07 03:15:11;;;;;;;21.27;15.50;;;;;;;;;;4998713;28;20089;-79
2022/09/07 03:17:38;;;;;;;23.73;16.02;;;;;;;;;;5017933;28;20164;-80
2022/09/07 03:20:04;;;;;;;18.85;14.18;;;;;;;;;;5018835;28;20050;-80
2022/09/07 03:22:32;;;;;;;20.10;14.57;;;;;;;;;;5017595;28;20156;-80
2022/09/07 03:25:00;;;;;;;23.80;15.10;;;;;;;;;;5018414;28;20096;-79
2022/09/07 03:27:26;;;;;;;19.38;14.20;;;;;;;;;;5017641;28;20045;-80
2022/09/07 03:29:53;;;;;;;20.67;14.60;;;;;;;;;;4998470;28;20053;-80
2022/09/07 03:32:19;;;;;;;21.30;15.20;;;;;;;;;;5016280;28;20076;-79
2022/09/07 03:34:47;;;;;;;18.27;14.13;;;;;;;;;;5003360;28;20129;-78
2022/09/07 03:37:13;;;;;;;20.95;13.98;;;;;;;;;;5016437;28;20075;-81
2022/09/07 03:39:40;;;;;;;18.05;14.05;;;;;;;;;;5016031;28;20042;-80
2022/09/07 03:42:06;;;;;;;18.40;13.93;;;;;;;;;;5034732;28;20053;-80
2022/09/07 03:44:33;;;;;;;18.23;13.73;;;;;;;;;;5034780;28;20073;-80
2022/09/07 03:46:59;;;;;;;16.85;12.88;;;;;;;;;;5032639;28;20050;-81
2022/09/07 03:49:26;;;;;;;19.58;13.82;;;;;;;;;;5031302;28;20050;-81
2022/09/07 03:51:52;;;;;;;21.52;15.90;;;;;;;;;;5025583;28;20065;-78
2022/09/07 03:54:18;;;;;;;18.55;14.30;;;;;;;;;;5049226;28;20049;-79
2022/09/07 03:56:45;;;;;;;24.27;15.27;;;;;;;;;;5029702;28;20119;-80
2022/09/07 03:59:12;;;;;;;21.67;17.33;;;;;;;;;;5017859;28;20081;-81
2022/09/07 04:01:38;;;;;;;24.77;19.08;;;;;;;;;;5033095;28;20486;-80
2022/09/07 04:04:05;;;;;;;24.77;18.75;;;;;;;;;;5016118;28;20045;-79
2022/09/07 04:06:32;;;;;;;24.60;17.08;;;;;;;;;;5030953;28;20133;-79
2022/09/07 04:09:03;;;;;;;23.20;17.02;;;;;;;;;;5014192;28;20092;-81
2022/09/07 04:11:30;;;;;;;23.35;18.27;;;;;;;;;;5014225;28;20081;-80
2022/09/07 04:13:59;;;;;;;23.58;17.67;;;;;;;;;;5013984;28;20136;-81
2022/09/07 04:16:26;;;;;;;22.63;16.30;;;;;;;;;;5015400;28;20646;-79
2022/09/07 04:18:56;;;;;;;21.38;16.70;;;;;;;;;;5014650;28;20069;-81
2022/09/07 04:21:26;;;;;;;22.92;16.85;;;;;;;;;;5015709;28;20496;-80
2022/09/07 04:23:53;;;;;;;25.30;16.92;;;;;;;;;;5016297;28;20220;-81
2022/09/07 04:26:21;;;;;;;19.50;15.50;;;;;;;;;;5014876;28;20370;-82
2022/09/07 04:28:48;;;;;;;21.25;15.88;;;;;;;;;;5014289;28;20347;-79
2022/09/07 04:31:15;;;;;;;18.85;15.30;;;;;;;;;;5015105;28;20058;-78
2022/09/07 04:33:42;;;;;;;23.52;16.35;;;;;;;;;;5008804;28;20096;-78
2022/09/07 04:36:08;;;;;;;20.42;15.70;;;;;;;;;;5009109;28;20498;-78
2022/09/07 04:38:35;;;;;;;24.58;15.10;;;;;;;;;;5011475;28;20137;-80
2022/09/07 04:41:05;;;;;;;18.45;14.88;;;;;;;;;;5012793;28;20084;-79
2022/09/07 04:43:31;;;;;;;22.08;14.65;;;;;;;;;;4996307;28;20109;-80
2022/09/07 04:46:01;;;;;;;20.50;15.27;;;;;;;;;;5014359;28;20371;-81
2022/09/07 04:48:27;;;;;;;19.10;14.68;;;;;;;;;;5014747;28;20050;-80
2022/09/07 04:50:54;;;;;;;19.67;16.10;;;;;;;;;;4997703;28;20053;-79
2022/09/07 04:53:21;;;;;;;18.75;15.05;;;;;;;;;;4998758;28;20077;-80
2022/09/07 04:55:47;;;;;;;17.60;14.15;;;;;;;;;;5015859;28;20129;-78
2022/09/07 04:58:14;;;;;;;21.25;15.38;;;;;;;;;;5014574;28;20077;-80
2022/09/07 05:00:40;;;;;;;17.50;13.90;;;;;;;;;;5017271;28;20072;-80
2022/09/07 05:03:06;;;;;;;17.52;14.20;;;;;;;;;;4996792;28;20092;-81
2022/09/07 05:05:35;;;;;;;19.95;14.52;;;;;;;;;;5012702;28;20046;-81
2022/09/07 05:08:01;;;;;;;23.00;16.80;;;;;;;;;;5011863;28;20128;-81
2022/09/07 05:10:27;;;;;;;24.55;17.88;;;;;;;;;;4993829;28;20089;-79
2022/09/07 05:12:54;;;;;;;24.63;16.13;;;;;;;;;;5010772;28;20152;-81
2022/09/07 05:15:23;;;;;;;21.20;15.98;;;;;;;;;;5016994;28;20056;-81
2022/09/07 05:17:50;;;;;;;21.13;16.38;;;;;;;;;;5011586;28;20136;-80
2022/09/07 05:20:18;;;;;;;21.17;16.05;;;;;;;;;;5011835;28;20073;-81
2022/09/07 05:22:45;;;;;;;23.02;15.52;;;;;;;;;;4994252;28;20049;-81
2022/09/07 05:25:12;;;;;;;21.52;16.20;;;;;;;;;;4993865;28;20136;-80
2022/09/07 05:27:39;;;;;;;19.88;14.65;;;;;;;;;;5010849;28;20557;-81
2022/09/07 05:30:05;;;;;;;23.38;16.25;;;;;;;;;;5014089;28;20068;-80
2022/09/07 05:32:32;;;;;;;22.50;15.88;;;;;;;;;;5018701;28;20097;-80
2022/09/07 05:34:59;;;;;;;22.20;15.35;;;;;;;;;;5030694;28;20085;-80
2022/09/07 05:37:25;;;;;;;21.35;15.27;;;;;;;;;;5030041;28;20106;-80
2022/09/07 05:39:55;;;;;;;19.40;14.43;;;;;;;;;;4999164;28;20550;-81
2022/09/07 05:42:22;;;;;;;19.23;14.05;;;;;;;;;;5014674;28;20046;-80
2022/09/07 05:44:48;;;;;;;18.75;14.57;;;;;;;;;;5015086;28;20187;-81
2022/09/07 05:47:15;;;;;;;21.17;14.95;;;;;;;;;;4998616;28;20052;-80
2022/09/07 05:49:41;;;;;;;19.35;15.25;;;;;;;;;;5016549;28;20061;-80
2022/09/07 05:52:08;;;;;;;18.23;14.88;;;;;;;;;;5015792;28;20132;-80
2022/09/07 05:54:34;;;;;;;21.75;14.75;;;;;;;;;;5015173;28;20084;-80
2022/09/07 05:57:02;;;;;;;25.27;15.45;;;;;;;;;;5014094;28;20494;-80
2022/09/07 05:59:29;;;;;;;21.20;15.25;;;;;;;;;;5014554;28;20045;-80
2022/09/07 06:01:55;;;;;;;21.52;15.45;;;;;;;;;;5024294;28;20105;-79
2022/09/07 06:04:22;;;;;;;24.92;16.15;;;;;;;;;;5014437;28;20062;-80
2022/09/07 06:06:48;;;;;;;18.95;15.30;;;;;;;;;;5014795;28;20133;-80
2022/09/07 06:09:35;;;;;;;20.92;15.02;;;;;;;;;;5014924;28;20045;-80
2022/09/07 06:12:21;;;;;;;21.23;14.70;;;;;;;;;;5013832;28;20060;-80
2022/09/07 06:14:48;;;;;;;18.70;13.65;;;;;;;;;;4995085;28;20085;-80
2022/09/07 06:17:14;;;;;;;18.70;13.82;;;;;;;;;;5013244;28;20082;-79
2022/09/07 06:19:40;;;;;;;16.38;13.18;;;;;;;;;;5012135;28;20052;-79
2022/09/07 06:22:07;;;;;;;15.95;12.40;;;;;;;;;;5013469;28;20050;-79
2022/09/07 06:24:33;;;;;;;18.13;11.98;;;;;;;;;;5012787;28;20490;-78
2022/09/07 06:27:00;;;;;;;19.48;11.80;;;;;;;;;;5012246;28;20042;-79
2022/09/07 06:29:26;;;;;;;17.10;11.32;;;;;;;;;;4997369;28;20556;-80
2022/09/07 06:31:53;;;;;;;17.60;11.52;;;;;;;;;;5015800;28;20133;-79
2022/09/07 06:34:39;;;;;;;14.02;10.90;;;;;;;;;;5013425;28;20053;-78
2022/09/07 06:37:05;;;;;;;26.90;10.95;;;;;;;;;;5013884;28;20069;-80
2022/09/07 06:39:33;;;;;;;14.93;9.60;;;;;;;;;;5014398;28;20133;-78
2022/09/07 06:41:59;;;;;;;14.32;9.85;;;;;;;;;;5012964;28;20245;-80
2022/09/07 06:44:26;;;;;;;11.95;9.55;;;;;;;;;;5013512;28;20046;-78
2022/09/07 06:46:52;;;;;;;12.60;9.18;;;;;;;;;;4997802;28;20073;-80
2022/09/07 06:49:26;;;;;;;15.80;9.70;;;;;;;;;;5015114;28;20046;-79
2022/09/07 06:51:53;;;;;;;15.98;9.82;;;;;;;;;;5015148;28;20046;-80
2022/09/07 06:54:19;;;;;;;11.15;8.82;;;;;;;;;;5013251;28;20042;-79
2022/09/07 06:57:07;;;;;;;18.75;9.63;;;;;;;;;;5014526;28;20049;-79
2022/09/07 06:59:34;;;;;;;13.80;9.15;;;;;;;;;;5012699;28;20080;-79
2022/09/07 07:02:01;;;;;;;14.43;8.73;;;;;;;;;;5013511;28;20045;-79
2022/09/07 07:04:27;;;;;;;12.75;8.43;;;;;;;;;;5016029;28;20137;-80
2022/09/07 07:06:54;;;;;;;13.00;8.93;;;;;;;;;;5015734;28;20132;-80
2022/09/07 07:09:20;;;;;;;16.05;8.30;;;;;;;;;;5013353;28;20089;-80
2022/09/07 07:11:47;;;;;;;12.38;7.95;;;;;;;;;;5013472;28;20118;-80
2022/09/07 07:14:14;;;;;;;14.85;8.20;;;;;;;;;;5012520;28;20086;-80
2022/09/07 07:16:40;;;;;;;14.55;7.53;;;;;;;;;;5014286;28;20054;-80
2022/09/07 07:19:07;;;;;;;12.35;7.32;;;;;;;;;;5013733;28;20042;-80
2022/09/07 07:21:33;;;;;;;10.95;7.68;;;;;;;;;;5014002;28;20117;-80
2022/09/07 07:24:21;;;;;;;12.45;7.45;;;;;;;;;;5015126;28;20049;-80
2022/09/07 07:26:48;;;;;;;9.70;7.03;;;;;;;;;;5013377;28;20466;-79
2022/09/07 07:29:15;;;;;;;10.98;6.90;;;;;;;;;;5012528;28;20084;-80
2022/09/07 07:31:45;;;;;;;11.57;6.95;;;;;;;;;;5014873;28;20064;-80
2022/09/07 07:34:12;;;;;;;12.02;6.95;;;;;;;;;;5014178;28;20418;-79
2022/09/07 07:36:38;;;;;;;12.35;6.22;;;;;;;;;;5013656;28;20421;-80
2022/09/07 07:39:05;;;;;;;7.40;6.00;;;;;;;;;;5012930;28;20506;-81
2022/09/07 07:41:31;;;;;;;15.18;6.07;;;;;;;;;;5012640;28;20046;-80
2022/09/07 07:44:19;;;;;;;10.15;6.00;;;;;;;;;;5012399;28;20502;-80
2022/09/07 07:46:50;;;;;;;10.73;5.10;;;;;;;;;;5012205;28;20509;-80
2022/09/07 07:49:45;;;;;;;10.88;5.40;;;;;;;;;;5010733;28;20512;-79
2022/09/07 07:52:12;;;;;;;8.38;4.93;;;;;;;;;;5011467;28;20050;-80
2022/09/07 07:54:59;;;;;;;10.43;5.85;;;;;;;;;;5011384;28;20052;-78
2022/09/07 07:57:25;;;;;;;10.88;5.63;;;;;;;;;;5011050;28;20045;-80
2022/09/07 07:59:52;;;;;;;11.15;4.93;;;;;;;;;;4993465;28;20050;-79
2022/09/07 08:02:18;;;;;;;8.77;5.30;;;;;;;;;;5012559;28;20065;-80
2022/09/07 08:04:44;;;;;;;7.50;4.60;;;;;;;;;;5012031;28;20205;-80
2022/09/07 08:07:11;;;;;;;7.57;4.60;;;;;;;;;;5011565;28;20049;-79
2022/09/07 08:09:38;;;;;;;8.00;4.72;;;;;;;;;;5010695;28;20560;-79
2022/09/07 08:12:04;;;;;;;9.45;4.50;;;;;;;;;;5001107;28;20061;-79
2022/09/07 08:14:31;;;;;;;6.90;4.40;;;;;;;;;;5011020;28;20046;-80
2022/09/07 08:16:57;;;;;;;6.82;4.30;;;;;;;;;;4993652;28;20056;-80
2022/09/07 08:19:23;;;;;;;7.65;4.30;;;;;;;;;;5010773;28;20050;-77
2022/09/07 08:21:50;;;;;;;11.95;4.63;;;;;;;;;;5011572;28;20387;-78
2022/09/07 08:24:16;;;;;;;9.13;4.90;;;;;;;;;;5011104;28;20128;-78
2022/09/07 08:26:42;;;;;;;6.57;4.70;;;;;;;;;;5010254;28;20046;-79
2022/09/07 08:29:10;;;;;;;8.18;4.60;;;;;;;;;;5009932;28;20049;-80
2022/09/07 08:31:37;;;;;;;7.85;4.75;;;;;;;;;;5011179;28;20062;-80
2022/09/07 08:34:03;;;;;;;10.57;6.13;;;;;;;;;;4993987;28;20085;-79
2022/09/07 08:36:30;;;;;;;9.07;5.07;;;;;;;;;;5009336;28;20049;-78
2022/09/07 08:38:57;;;;;;;9.50;5.68;;;;;;;;;;5009568;28;20181;-78
2022/09/07 08:41:39;;;;;;;10.25;4.75;;;;;;;;;;5009907;28;20254;-79
2022/09/07 08:44:20;;;;;;;12.15;6.97;;;;;;;;;;5011045;28;20046;-79
2022/09/07 08:46:59;;;;;;;9.13;5.43;;;;;;;;;;5010823;28;20057;-78
2022/09/07 08:49:26;;;;;;;9.63;5.22;;;;;;;;;;5010479;28;20502;-78
2022/09/07 08:51:57;;;;;;;7.88;4.60;;;;;;;;;;5010866;28;20136;-79
2022/09/07 08:54:23;;;;;;;7.63;4.55;;;;;;;;;;4991349;28;20060;-79
2022/09/07 08:56:50;;;;;;;9.23;4.70;;;;;;;;;;5010551;28;20046;-80
2022/09/07 08:59:40;;;;;;;10.00;5.60;;;;;;;;;;5017808;28;20421;-80
2022/09/07 09:02:09;;;;;;;9.40;5.57;;;;;;;;;;5026710;28;20179;-80
2022/09/07 09:04:55;;;;;;;11.50;4.80;;;;;;;;;;5021241;28;20049;-80
2022/09/07 09:07:47;;;;;;;10.70;5.13;;;;;;;;;;5012647;28;20561;-80
2022/09/07 09:10:26;;;;;;;12.43;5.03;;;;;;;;;;5011368;28;20045;-79
2022/09/07 09:12:57;;;;;;;14.68;5.15;;;;;;;;;;5009722;28;20062;-79
2022/09/07 09:15:40;;;;;;;8.82;5.03;;;;;;;;;;5010008;28;20124;-78
2022/09/07 09:18:25;;;;;;;6.15;4.57;;;;;;;;;;5010288;28;20489;-80
2022/09/07 09:20:53;;;;;;;9.63;5.03;;;;;;;;;;5010815;28;20049;-79
2022/09/07 09:23:22;;;;;;;11.07;4.70;;;;;;;;;;5009942;28;20056;-79
2022/09/07 09:25:58;;;;;;;8.40;4.53;;;;;;;;;;5009340;28;20057;-80
2022/09/07 09:28:24;;;;;;;9.63;4.40;;;;;;;;;;5010247;28;20064;-78
2022/09/07 09:30:55;;;;;;;7.80;4.22;;;;;;;;;;5010122;28;20049;-80
2022/09/07 09:33:26;;;;;;;12.13;4.20;;;;;;;;;;5010738;28;20517;-80
2022/09/07 09:35:55;;;;;;;5.82;3.58;;;;;;;;;;5010819;28;20050;-79
2022/09/07 09:38:34;;;;;;;8.73;3.80;;;;;;;;;;5008330;28;20413;-80
2022/09/07 09:41:10;;;;;;;6.78;3.90;;;;;;;;;;5010747;28;20057;-80
2022/09/07 09:43:50;;;;;;;13.30;4.20;;;;;;;;;;5010630;28;20050;-80
2022/09/07 09:46:20;;;;;;;8.50;3.58;;;;;;;;;;5008987;28;20054;-80
2022/09/07 09:48:51;;;;;;;9.73;3.58;;;;;;;;;;5009356;28;20058;-80
2022/09/07 09:51:18;;;;;;;6.18;3.17;;;;;;;;;;5010508;28;20057;-80
2022/09/07 09:54:06;;;;;;;13.98;3.67;;;;;;;;;;5009912;28;20053;-80
2022/09/07 09:56:40;;;;;;;6.75;2.60;;;;;;;;;;4990084;28;20050;-80
2022/09/07 09:59:16;;;;;;;10.45;3.42;;;;;;;;;;4990824;28;20149;-79
2022/09/07 10:02:21;;;;;;;7.50;2.97;;;;;;;;;;4990454;28;20050;-79
2022/09/07 10:05:27;;;;;;;8.02;2.95;;;;;;;;;;4990484;28;20046;-80
2022/09/07 10:07:55;;;;;;;10.77;2.85;;;;;;;;;;4990083;28;20129;-80
2022/09/07 10:10:21;;;;;;;11.95;3.00;;;;;;;;;;4969619;28;20052;-79
2022/09/07 10:12:50;;;;;;;9.10;2.80;;;;;;;;;;4991157;28;20068;-81
2022/09/07 10:15:35;;;;;;;8.75;2.92;;;;;;;;;;5012075;28;20040;-81
2022/09/07 10:18:08;;;;;;;6.40;2.85;;;;;;;;;;4997889;28;20145;-80
2022/09/07 10:20:36;;;;;;;11.68;2.80;;;;;;;;;;4992710;28;20070;-80
2022/09/07 10:23:04;;;;;;;6.88;2.78;;;;;;;;;;4999069;28;20141;-80
2022/09/07 10:25:33;;;;;;;12.13;2.97;;;;;;;;;;4992240;28;20061;-80
2022/09/07 10:28:01;;;;;;;12.00;2.70;;;;;;;;;;4991655;28;20046;-79
2022/09/07 10:30:30;;;;;;;12.45;2.95;;;;;;;;;;4992830;28;20055;-79
2022/09/07 10:32:59;;;;;;;10.60;2.78;;;;;;;;;;4996717;28;20533;-80
2022/09/07 10:35:29;;;;;;;6.53;2.63;;;;;;;;;;4992935;28;20073;-79
2022/09/07 10:37:58;;;;;;;9.18;2.80;;;;;;;;;;4992220;28;20513;-78
2022/09/07 10:40:28;;;;;;;8.73;2.60;;;;;;;;;;4992368;28;20065;-78
2022/09/07 10:42:57;;;;;;;11.05;2.80;;;;;;;;;;4990594;28;20062;-79
2022/09/07 10:45:56;;;;;;;8.57;2.75;;;;;;;;;;4993034;28;20320;-79
2022/09/07 10:48:37;;;;;;;12.48;2.80;;;;;;;;;;4992495;28;20558;-78
2022/09/07 10:51:07;;;;;;;11.68;2.67;;;;;;;;;;4993354;28;20061;-80
2022/09/07 10:53:42;;;;;;;8.48;3.05;;;;;;;;;;4993131;28;20402;-81
2022/09/07 10:56:15;;;;;;;6.38;2.08;;;;;;;;;;4991204;28;20470;-79
2022/09/07 10:58:50;;;;;;;11.40;2.80;;;;;;;;;;4992641;28;20108;-78
2022/09/07 11:01:38;;;;;;;9.68;2.45;;;;;;;;;;4994264;28;20447;-79
2022/09/07 11:04:12;;;;;;;7.80;2.65;;;;;;;;;;4993221;28;20415;-77
2022/09/07 11:06:40;;;;;;;9.07;2.70;;;;;;;;;;4992930;28;20053;-78
2022/09/07 11:09:16;;;;;;;14.63;3.10;;;;;;;;;;4992189;28;20057;-78
2022/09/07 11:11:47;;;;;;;10.13;2.63;;;;;;;;;;4991453;28;20332;-77
2022/09/07 11:14:29;;;;;;;;;;;;;;;;;;4994629;28;20130;-80
2022/09/07 11:17:00;;;;;;;7.55;2.03;;;;;;;;;;4992631;28;19922;-79
2022/09/07 11:19:38;;;;;;;8.27;2.13;;;;;;;;;;5006054;28;20088;-78
2022/09/07 11:22:04;;;;;;;9.82;2.65;;;;;;;;;;5012375;28;20060;-78
2022/09/07 11:24:41;;;;;;;9.57;2.60;;;;;;;;;;5012515;28;20042;-78
2022/09/07 11:27:10;;;;;;;11.70;2.90;;;;;;;;;;5010355;28;20133;-80
2022/09/07 11:29:45;;;;;;;7.70;2.80;;;;;;;;;;5012257;28;20045;-80
2022/09/07 11:32:23;;;;;;;8.65;2.40;;;;;;;;;;5012380;28;20126;-79
2022/09/07 11:34:54;;;;;;;7.32;2.30;;;;;;;;;;5013311;28;20050;-78
2022/09/07 11:37:24;;;;;;;8.65;2.60;;;;;;;;;;5012269;28;20081;-78
2022/09/07 11:40:00;;;;;;;7.30;2.92;;;;;;;;;;5007191;28;20046;-79
2022/09/07 11:42:32;;;;;;;6.05;2.53;;;;;;;;;;5012566;28;20533;-78
2022/09/07 11:45:15;;;;;;;5.55;2.63;;;;;;;;;;5012005;28;20050;-77
2022/09/07 11:47:46;;;;;;;6.10;2.50;;;;;;;;;;5012958;28;20525;-78
2022/09/07 11:50:16;;;;;;;7.43;2.90;;;;;;;;;;5014439;28;20394;-78
2022/09/07 11:52:48;;;;;;;10.52;2.88;;;;;;;;;;5014345;28;20593;-78
2022/09/07 11:55:22;;;;;;;7.85;2.75;;;;;;;;;;5013143;28;20088;-78
2022/09/07 11:58:12;;;;;;;11.32;3.50;;;;;;;;;;5023903;28;20041;-79
2022/09/07 12:00:49;;;;;;;7.72;2.72;;;;;;;;;;5019330;28;20041;-78
2022/09/07 12:03:22;;;;;;;7.97;2.75;;;;;;;;;;5016333;28;20053;-79
2022/09/07 12:06:08;;;;;;;7.60;2.80;;;;;;;;;;5015636;28;20050;-79
2022/09/07 12:08:55;;;;;;;8.60;3.10;;;;;;;;;;5014254;28;20061;-79
2022/09/07 12:11:44;;;;;;;10.63;3.50;;;;;;;;;;5013862;28;20065;-79
2022/09/07 12:14:29;;;;;;;10.82;3.30;;;;;;;;;;5015516;28;20060;-79
2022/09/07 12:17:15;;;;;;;9.23;3.33;;;;;;;;;;5013693;28;20452;-80
2022/09/07 12:19:42;;;;;;;9.00;3.30;;;;;;;;;;5027938;28;20064;-80
2022/09/07 12:22:19;;;;;;;5.47;3.10;;;;;;;;;;5029913;28;20168;-80
2022/09/07 12:24:47;;;;;;;11.40;3.28;;;;;;;;;;5030343;28;20050;-80
2022/09/07 12:27:19;;;;;;;10.30;3.30;;;;;;;;;;5015553;28;20414;-78
2022/09/07 12:30:06;;;;;;;7.82;2.97;;;;;;;;;;5011079;28;20050;-79
2022/09/07 12:32:41;;;;;;;6.63;2.95;;;;;;;;;;4970781;28;20053;-79
2022/09/07 12:35:27;;;;;;;10.00;2.83;;;;;;;;;;5012887;28;20455;-80
2022/09/07 12:37:54;;;;;;;7.43;2.80;;;;;;;;;;4993599;28;20522;-78
2022/09/07 12:40:26;;;;;;;7.90;2.90;;;;;;;;;;5011443;28;20042;-79
2022/09/07 12:43:11;;;;;;;5.22;2.72;;;;;;;;;;5011423;28;20494;-79
2022/09/07 12:45:37;;;;;;;6.45;2.75;;;;;;;;;;4993771;28;20050;-80
2022/09/07 12:48:03;;;;;;;10.43;3.00;;;;;;;;;;5009651;28;20046;-79
2022/09/07 12:50:35;;;;;;;9.00;3.25;;;;;;;;;;5019153;28;20054;-80
2022/09/07 12:53:11;;;;;;;6.40;2.90;;;;;;;;;;5012898;28;20117;-80
2022/09/07 12:55:50;;;;;;;5.00;2.90;;;;;;;;;;5012165;28;20045;-80
2022/09/07 12:58:45;;;;;;;7.10;2.67;;;;;;;;;;5011142;28;20054;-78
2022/09/07 13:01:22;;;;;;;7.67;2.40;;;;;;;;;;5012434;28;20052;-80
2022/09/07 13:04:01;;;;;;;9.40;2.70;;;;;;;;;;5013675;28;20046;-80
2022/09/07 13:06:43;;;;;;;8.02;2.47;;;;;;;;;;5012591;28;20493;-80
2022/09/07 13:09:31;;;;;;;5.45;2.60;;;;;;;;;;5011108;28;20380;-80
2022/09/07 13:11:58;;;;;;;5.60;2.50;;;;;;;;;;5011322;28;20053;-80
2022/09/07 13:14:25;;;;;;;5.15;1.90;;;;;;;;;;5011268;28;20050;-78
2022/09/07 13:17:11;;;;;;;7.63;2.40;;;;;;;;;;5011653;28;20091;-80
2022/09/07 13:19:44;;;;;;;9.75;1.88;;;;;;;;;;5010416;28;20054;-79
2022/09/07 13:22:41;;;;;;;5.85;1.90;;;;;;;;;;5010853;28;20085;-80
2022/09/07 13:25:18;;;;;;;6.85;1.98;;;;;;;;;;4997571;28;20041;-80
2022/09/07 13:27:55;;;;;;;7.88;1.90;;;;;;;;;;4993743;28;20540;-80
2022/09/07 13:30:22;;;;;;;6.88;1.80;;;;;;;;;;5009604;28;20442;-80
2022/09/07 13:32:48;;;;;;;3.20;1.52;;;;;;;;;;5011656;28;20073;-80
2022/09/07 13:35:35;;;;;;;7.07;2.03;;;;;;;;;;5013797;28;20049;-79
2022/09/07 13:38:02;;;;;;;6.82;2.00;;;;;;;;;;5013077;28;20426;-78
2022/09/07 13:40:38;;;;;;;4.47;1.60;;;;;;;;;;5010322;28;20054;-79
2022/09/07 13:43:05;;;;;;;4.93;1.98;;;;;;;;;;5010763;28;20050;-79
2022/09/07 13:45:50;;;;;;;7.82;2.08;;;;;;;;;;5010431;28;20042;-79
2022/09/07 13:48:28;;;;;;;4.25;1.73;;;;;;;;;;5009711;28;20046;-79
2022/09/07 13:51:08;;;;;;;6.30;2.00;;;;;;;;;;5010895;28;20357;-79
2022/09/07 13:53:47;;;;;;;10.98;2.28;;;;;;;;;;5014729;28;20088;-78
2022/09/07 13:56:26;;;;;;;7.13;2.00;;;;;;;;;;5013614;28;20046;-79
2022/09/07 13:58:53;;;;;;;8.55;1.98;;;;;;;;;;5017409;28;20072;-80
2022/09/07 14:01:21;;;;;;;4.15;1.90;;;;;;;;;;5015607;28;20489;-79
2022/09/07 14:03:55;;;;;;;6.82;2.05;;;;;;;;;;5014526;28;20490;-80
2022/09/07 14:06:24;;;;;;;7.03;1.80;;;;;;;;;;5015496;28;20041;-80
2022/09/07 14:08:51;;;;;;;4.65;1.73;;;;;;;;;;5012467;28;20046;-80
2022/09/07 14:11:18;;;;;;;4.18;2.10;;;;;;;;;;5013818;28;20041;-79
2022/09/07 14:13:45;;;;;;;8.68;2.00;;;;;;;;;;5014823;28;20057;-79
2022/09/07 14:16:11;;;;;;;2.78;1.60;;;;;;;;;;5014947;28;20108;-80
2022/09/07 14:18:38;;;;;;;7.20;1.77;;;;;;;;;;5003661;28;20077;-79
2022/09/07 14:21:08;;;;;;;5.05;1.83;;;;;;;;;;5019756;28;20057;-77
2022/09/07 14:23:35;;;;;;;7.38;1.90;;;;;;;;;;5025713;28;20046;-78
2022/09/07 14:26:05;;;;;;;6.07;1.73;;;;;;;;;;5016687;28;20485;-79
2022/09/07 14:28:51;;;;;;;6.15;1.70;;;;;;;;;;5015207;28;20061;-78
2022/09/07 14:31:19;;;;;;;9.45;1.90;;;;;;;;;;5016315;28;20197;-79
2022/09/07 14:33:50;;;;;;;7.28;1.92;;;;;;;;;;5015697;28;20061;-78
2022/09/07 14:36:17;;;;;;;4.22;1.90;;;;;;;;;;5017741;28;20050;-79
2022/09/07 14:39:05;;;;;;;4.30;1.73;;;;;;;;;;5015994;28;20057;-78
2022/09/07 14:41:33;;;;;;;6.00;1.98;;;;;;;;;;5017884;28;20439;-79
2022/09/07 14:44:00;;;;;;;5.53;1.70;;;;;;;;;;5003639;28;20058;-78
2022/09/07 14:46:28;;;;;;;5.68;2.10;;;;;;;;;;5021119;28;20054;-79
2022/09/07 14:48:55;;;;;;;39.80;4.25;;;;;;;;;;5015487;28;20077;-78
2022/09/07 14:51:24;;;;;;;7.88;2.15;;;;;;;;;;5018397;28;20054;-79
2022/09/07 14:54:03;;;;;;;14.43;2.20;;;;;;;;;;5017728;28;20145;-79
2022/09/07 14:56:31;;;;;;;10.40;1.92;;;;;;;;;;5017371;28;20042;-80